createdAt,value
2023-10-05T00:02:27.129Z,1006.69
2023-10-05T00:07:27.083Z,1006.66
2023-10-05T00:12:26.987Z,1006.83
2023-10-05T00:17:27.047Z,1006.87
2023-10-05T00:22:26.896Z,1006.80
2023-10-05T00:27:26.784Z,1006.75
2023-10-05T00:32:26.696Z,1006.81
2023-10-05T00:37:26.697Z,1006.87
2023-10-05T00:42:26.569Z,1006.82
2023-10-05T00:47:26.541Z,1006.79
2023-10-05T00:52:26.522Z,1006.76
2023-10-05T00:57:26.459Z,1006.79
2023-10-05T01:02:26.362Z,1006.84
2023-10-05T01:07:26.374Z,1006.66
2023-10-05T01:12:26.166Z,1006.62
2023-10-05T01:17:26.137Z,1006.66
2023-10-05T01:22:26.060Z,1006.67
2023-10-05T01:27:25.985Z,1006.54
2023-10-05T01:32:25.958Z,1006.42
2023-10-05T01:37:25.889Z,1006.38
2023-10-05T01:42:25.768Z,1006.36
2023-10-05T01:47:25.727Z,1006.39
2023-10-05T01:52:25.773Z,1006.35
2023-10-05T01:57:25.610Z,1006.28
2023-10-05T02:02:25.604Z,1006.35
2023-10-05T02:07:25.494Z,1006.33
2023-10-05T02:12:25.401Z,1006.23
2023-10-05T02:17:25.324Z,1006.20
2023-10-05T02:22:25.263Z,1006.17
2023-10-05T02:27:25.183Z,1006.19
2023-10-05T02:32:25.097Z,1006.25
2023-10-05T02:37:25.093Z,1006.24
2023-10-05T02:42:24.970Z,1006.21
2023-10-05T02:47:25.258Z,1006.33
2023-10-05T02:52:24.929Z,1006.29
2023-10-05T02:57:24.785Z,1006.31
2023-10-05T03:02:24.694Z,1006.28
2023-10-05T03:07:24.720Z,1006.19
2023-10-05T03:12:24.586Z,1006.14
2023-10-05T03:17:24.560Z,1006.12
2023-10-05T03:22:24.479Z,1006.16
2023-10-05T03:27:24.382Z,1006.13
2023-10-05T03:32:25.879Z,1006.12
2023-10-05T03:37:24.261Z,1006.04
2023-10-05T03:42:24.176Z,1005.98
2023-10-05T03:47:24.154Z,1005.93
2023-10-05T03:52:24.062Z,1005.95
2023-10-05T03:57:23.961Z,1005.97
2023-10-05T04:02:23.914Z,1005.91
2023-10-05T04:07:23.874Z,1005.97
2023-10-05T04:12:23.766Z,1005.90
2023-10-05T04:17:23.703Z,1005.94
2023-10-05T04:22:23.656Z,1005.99
2023-10-05T04:27:23.566Z,1005.97
2023-10-05T04:32:23.499Z,1005.95
2023-10-05T04:37:23.503Z,1005.84
2023-10-05T04:42:23.366Z,1005.83
2023-10-05T04:47:23.343Z,1005.78
2023-10-05T04:52:23.283Z,1005.75
2023-10-05T04:57:23.166Z,1005.74
2023-10-05T05:02:23.243Z,1005.70
2023-10-05T05:07:23.064Z,1005.63
2023-10-05T05:12:22.988Z,1005.58
2023-10-05T05:17:22.990Z,1005.52
2023-10-05T05:22:22.921Z,1005.51
2023-10-05T05:27:23.055Z,1005.54
2023-10-05T05:32:22.715Z,1005.51
2023-10-05T05:37:22.652Z,1005.50
2023-10-05T05:42:22.564Z,1005.46
2023-10-05T05:47:22.538Z,1005.30
2023-10-05T05:52:22.490Z,1005.33
2023-10-05T05:57:22.375Z,1005.35
2023-10-05T06:02:22.352Z,1005.35
2023-10-05T06:07:22.373Z,1005.35
2023-10-05T06:12:22.169Z,1005.33
2023-10-05T06:17:22.172Z,1005.43
2023-10-05T06:22:22.076Z,1005.43
2023-10-05T06:27:21.963Z,1005.52
2023-10-05T06:32:21.894Z,1005.46
2023-10-05T06:37:21.873Z,1005.51
2023-10-05T06:42:21.773Z,1005.63
2023-10-05T06:47:21.753Z,1005.68
2023-10-05T06:52:21.635Z,1005.78
2023-10-05T06:57:21.549Z,1005.67
2023-10-05T07:02:21.623Z,1005.80
2023-10-05T07:07:21.461Z,1005.85
2023-10-05T07:12:21.576Z,1005.73
2023-10-05T07:17:21.308Z,1005.85
2023-10-05T07:22:21.285Z,1005.84
2023-10-05T07:27:21.153Z,1005.76
2023-10-05T07:32:21.126Z,1005.87
2023-10-05T07:37:21.088Z,1005.86
2023-10-05T07:42:20.984Z,1005.82
2023-10-05T07:47:20.926Z,1005.74
2023-10-05T07:52:20.892Z,1005.87
2023-10-05T07:57:20.771Z,1005.96
2023-10-05T08:02:20.828Z,1006.03
2023-10-05T08:07:20.653Z,1006.13
2023-10-05T08:12:20.579Z,1006.09
2023-10-05T08:17:20.529Z,1006.03
2023-10-05T08:22:20.485Z,1005.94
2023-10-05T08:27:20.358Z,1005.93
2023-10-05T08:32:20.311Z,1006.00
2023-10-05T08:37:20.237Z,1005.96
2023-10-05T08:42:20.160Z,1005.91
2023-10-05T08:47:20.114Z,1006.09
2023-10-05T08:52:20.421Z,1006.20
2023-10-05T08:57:20.303Z,1006.22
2023-10-05T09:02:20.663Z,1006.24
2023-10-05T09:07:19.817Z,1006.22
2023-10-05T09:12:19.783Z,1006.22
2023-10-05T09:17:19.695Z,1006.28
2023-10-05T09:22:19.689Z,1006.24
2023-10-05T09:27:19.561Z,1006.31
2023-10-05T09:32:19.595Z,1006.35
2023-10-05T09:37:19.465Z,1006.36
2023-10-05T09:42:19.369Z,1006.51
2023-10-05T09:47:19.285Z,1006.56
2023-10-05T09:52:19.250Z,1006.41
2023-10-05T09:57:19.170Z,1006.45
2023-10-05T10:02:19.103Z,1006.40
2023-10-05T10:07:19.074Z,1006.32
2023-10-05T10:12:18.979Z,1006.36
2023-10-05T10:17:18.905Z,1006.38
2023-10-05T10:22:19.054Z,1006.38
2023-10-05T10:27:18.775Z,1006.34
2023-10-05T10:32:18.744Z,1006.38
2023-10-05T10:37:18.659Z,1006.40
2023-10-05T10:42:18.592Z,1006.44
2023-10-05T10:47:18.565Z,1006.51
2023-10-05T10:52:27.050Z,1006.47
2023-10-05T10:57:19.402Z,1006.44
2023-10-05T11:02:18.337Z,1006.42
2023-10-05T11:07:18.279Z,1006.39
2023-10-05T11:12:18.194Z,1006.33
2023-10-05T11:17:18.208Z,1006.26
2023-10-05T11:22:18.065Z,1006.17
2023-10-05T11:27:17.981Z,1006.17
2023-10-05T11:32:25.776Z,1006.22
2023-10-05T11:37:19.159Z,1006.11
2023-10-05T11:42:17.818Z,1006.05
2023-10-05T11:47:17.784Z,1006.03
2023-10-05T11:52:17.665Z,1006.08
2023-10-05T11:57:17.588Z,1006.10
2023-10-05T12:02:17.660Z,1006.15
2023-10-05T12:07:17.460Z,1006.22
2023-10-05T12:12:17.400Z,1006.15
2023-10-05T12:17:17.345Z,1006.22
2023-10-05T12:22:17.274Z,1006.20
2023-10-05T12:27:17.187Z,1006.20
2023-10-05T12:32:17.131Z,1006.21
2023-10-05T12:37:17.081Z,1006.29
2023-10-05T12:42:17.753Z,1006.31
2023-10-05T12:47:16.974Z,1006.26
2023-10-05T12:52:16.895Z,1006.22
2023-10-05T12:57:20.986Z,1006.13
2023-10-05T13:02:17.297Z,1006.15
2023-10-05T13:07:16.666Z,1006.09
2023-10-05T13:12:16.579Z,1006.18
2023-10-05T13:17:16.518Z,1006.30
2023-10-05T13:22:16.481Z,1006.31
2023-10-05T13:27:16.375Z,1006.33
2023-10-05T13:32:16.436Z,1006.36
2023-10-05T13:37:16.318Z,1006.30
2023-10-05T13:42:16.183Z,1006.34
2023-10-05T13:47:16.203Z,1006.40
2023-10-05T13:52:16.094Z,1006.37
2023-10-05T13:57:15.975Z,1006.42
2023-10-05T14:02:15.904Z,1006.33
2023-10-05T14:07:15.870Z,1006.31
2023-10-05T14:12:15.771Z,1006.34
2023-10-05T14:17:15.714Z,1006.33
2023-10-05T14:22:15.710Z,1006.39
2023-10-05T14:27:15.589Z,1006.41
2023-10-05T14:32:15.501Z,1006.43
2023-10-05T14:37:15.489Z,1006.49
2023-10-05T14:42:15.546Z,1006.53
2023-10-05T14:47:15.571Z,1006.55
2023-10-05T14:52:15.348Z,1006.52
2023-10-05T14:57:15.199Z,1006.57
2023-10-05T15:02:15.140Z,1006.62
2023-10-05T15:07:15.101Z,1006.63
2023-10-05T15:12:14.992Z,1006.64
2023-10-05T15:17:14.992Z,1006.61
2023-10-05T15:22:14.870Z,1006.58
2023-10-05T15:27:14.801Z,1006.61
2023-10-05T15:32:14.722Z,1006.69
2023-10-05T15:37:14.694Z,1006.63
2023-10-05T15:42:14.596Z,1006.66
2023-10-05T15:47:14.615Z,1006.62
2023-10-05T15:52:14.487Z,1006.64
2023-10-05T15:57:14.383Z,1006.62
2023-10-05T16:02:14.369Z,1006.69
2023-10-05T16:07:14.298Z,1006.75
2023-10-05T16:12:14.183Z,1006.77
2023-10-05T16:17:14.148Z,1006.82
2023-10-05T16:22:14.044Z,1006.84
2023-10-05T16:27:13.984Z,1006.89
2023-10-05T16:32:13.924Z,1006.94
2023-10-05T16:37:13.859Z,1006.97
2023-10-05T16:42:13.775Z,1007.02
2023-10-05T16:47:13.807Z,1007.11
2023-10-05T16:52:13.655Z,1007.20
2023-10-05T16:57:13.586Z,1007.25
2023-10-05T17:02:13.537Z,1007.29
2023-10-05T17:07:13.478Z,1007.24
2023-10-05T17:12:13.394Z,1007.34
2023-10-05T17:17:13.391Z,1007.39
2023-10-05T17:22:13.233Z,1007.40
2023-10-05T17:27:13.183Z,1007.42
2023-10-05T17:32:13.132Z,1007.44
2023-10-05T17:37:13.040Z,1007.43
2023-10-05T17:42:12.960Z,1007.44
2023-10-05T17:47:12.912Z,1007.42
2023-10-05T17:52:12.840Z,1007.39
2023-10-05T17:57:12.769Z,1007.39
2023-10-05T18:02:12.845Z,1007.41
2023-10-05T18:07:12.630Z,1007.38
2023-10-05T18:12:12.569Z,1007.47
2023-10-05T18:17:12.509Z,1007.45
2023-10-05T18:22:12.446Z,1007.43
2023-10-05T18:27:12.399Z,1007.54
2023-10-05T18:32:12.406Z,1007.55
2023-10-05T18:37:12.230Z,1007.59
2023-10-05T18:42:12.169Z,1007.68
2023-10-05T18:47:12.103Z,1007.76
2023-10-05T18:52:12.028Z,1007.78
2023-10-05T18:57:12.229Z,1007.74
2023-10-05T19:02:11.995Z,1007.81
2023-10-05T19:07:11.840Z,1007.85
2023-10-05T19:12:11.765Z,1007.91
2023-10-05T19:17:11.724Z,1007.92
2023-10-05T19:22:11.626Z,1007.97
2023-10-05T19:27:11.566Z,1007.91
2023-10-05T19:32:11.503Z,1007.92
2023-10-05T19:37:11.435Z,1007.86
2023-10-05T19:42:11.408Z,1007.93
2023-10-05T19:47:11.392Z,1007.98
2023-10-05T19:52:11.225Z,1007.98
2023-10-05T19:57:11.169Z,1008.03
2023-10-05T20:02:11.185Z,1008.07
2023-10-05T20:07:11.048Z,1008.09
2023-10-05T20:12:10.979Z,1008.08
2023-10-05T20:17:10.997Z,1008.08
2023-10-05T20:22:10.838Z,1008.14
2023-10-05T20:27:10.799Z,1008.19
2023-10-05T20:32:10.697Z,1008.11
2023-10-05T20:37:10.642Z,1008.21
2023-10-05T20:42:10.569Z,1008.17
2023-10-05T20:47:10.615Z,1008.20
2023-10-05T20:52:10.434Z,1008.21
2023-10-05T20:57:10.377Z,1008.21
2023-10-05T21:02:10.296Z,1008.20
2023-10-05T21:07:10.239Z,1008.19
2023-10-05T21:12:10.175Z,1008.22
2023-10-05T21:17:10.313Z,1008.18
2023-10-05T21:22:10.050Z,1008.18
2023-10-05T21:27:09.984Z,1008.13
2023-10-05T21:32:09.919Z,1008.10
2023-10-05T21:37:09.850Z,1008.08
2023-10-05T21:42:09.780Z,1008.08
2023-10-05T21:47:11.774Z,1008.05
2023-10-05T21:52:09.649Z,1008.15
2023-10-05T21:57:09.603Z,1008.12
2023-10-05T22:02:09.566Z,1008.11
2023-10-05T22:07:09.449Z,1008.19
2023-10-05T22:12:09.391Z,1008.12
2023-10-05T22:17:09.416Z,1008.20
2023-10-05T22:22:09.231Z,1008.32
2023-10-05T22:27:09.173Z,1008.37
2023-10-05T22:32:09.100Z,1008.44
2023-10-05T22:37:09.034Z,1008.39
2023-10-05T22:42:09.008Z,1008.45
2023-10-05T22:47:08.942Z,1008.53
2023-10-05T22:52:08.831Z,1008.55
2023-10-05T22:57:08.767Z,1008.60
2023-10-05T23:02:08.745Z,1008.64
2023-10-05T23:07:08.637Z,1008.68
2023-10-05T23:12:08.560Z,1008.76
2023-10-05T23:17:08.560Z,1008.71
2023-10-05T23:22:08.425Z,1008.67
2023-10-05T23:27:09.339Z,1008.66
2023-10-05T23:32:08.355Z,1008.74
2023-10-05T23:37:08.223Z,1008.79
2023-10-05T23:42:08.134Z,1008.73
2023-10-05T23:47:21.965Z,1008.72
2023-10-05T23:52:09.039Z,1008.72
2023-10-05T23:57:07.934Z,1008.73
